createdAt,value
2023-07-11T00:00:15.817Z,18.98
2023-07-11T00:02:43.999Z,19.01
2023-07-11T00:05:14.829Z,18.80
2023-07-11T00:07:41.928Z,18.67
2023-07-11T00:10:11.180Z,18.85
2023-07-11T00:12:37.642Z,18.61
2023-07-11T00:15:04.696Z,18.69
2023-07-11T00:17:31.557Z,18.65
2023-07-11T00:19:59.428Z,18.69
2023-07-11T00:22:29.729Z,18.73
2023-07-11T00:24:56.136Z,18.72
2023-07-11T00:27:24.486Z,18.53
2023-07-11T00:29:52.490Z,18.53
2023-07-11T00:32:19.540Z,18.89
2023-07-11T00:34:46.353Z,18.61
2023-07-11T00:37:12.950Z,18.63
2023-07-11T00:39:39.595Z,18.64
2023-07-11T00:42:08.166Z,18.60
2023-07-11T00:44:55.169Z,18.35
2023-07-11T00:47:23.827Z,18.23
2023-07-11T00:49:55.769Z,18.21
2023-07-11T00:52:23.540Z,18.21
2023-07-11T00:54:56.105Z,18.07
2023-07-11T00:57:25.725Z,17.99
2023-07-11T00:59:52.969Z,18.03
2023-07-11T01:02:23.787Z,18.16
2023-07-11T01:04:50.198Z,18.01
2023-07-11T01:07:24.423Z,18.03
2023-07-11T01:09:50.967Z,17.94
2023-07-11T01:12:18.037Z,17.90
2023-07-11T01:14:47.387Z,17.88
2023-07-11T01:17:30.955Z,17.90
2023-07-11T01:20:00.019Z,17.71
2023-07-11T01:22:29.472Z,17.76
2023-07-11T01:24:59.719Z,17.77
2023-07-11T01:27:26.139Z,17.78
2023-07-11T01:29:53.810Z,17.88
2023-07-11T01:32:20.802Z,17.70
2023-07-11T01:34:47.459Z,17.69
2023-07-11T01:37:14.433Z,17.71
2023-07-11T01:39:40.948Z,17.65
2023-07-11T01:42:07.787Z,17.79
2023-07-11T01:44:34.342Z,17.73
2023-07-11T01:47:03.282Z,17.70
2023-07-11T01:49:30.146Z,17.60
2023-07-11T01:52:17.224Z,17.56
2023-07-11T01:54:43.749Z,17.53
2023-07-11T01:57:10.225Z,17.38
2023-07-11T01:59:40.323Z,17.44
2023-07-11T02:02:08.482Z,17.46
2023-07-11T02:04:36.255Z,17.45
2023-07-11T02:07:04.067Z,17.32
2023-07-11T02:09:31.105Z,17.36
2023-07-11T02:11:57.706Z,17.41
2023-07-11T02:14:25.049Z,17.41
2023-07-11T02:16:53.152Z,17.34
2023-07-11T02:19:21.779Z,17.34
2023-07-11T02:21:48.937Z,17.48
2023-07-11T02:24:17.163Z,17.40
2023-07-11T02:26:43.933Z,17.27
2023-07-11T02:29:11.070Z,17.37
2023-07-11T02:31:38.277Z,17.43
2023-07-11T02:34:05.486Z,17.38
2023-07-11T02:36:32.472Z,17.46
2023-07-11T02:38:59.304Z,17.35
2023-07-11T02:41:26.970Z,17.25
2023-07-11T02:43:53.894Z,17.06
2023-07-11T02:46:20.948Z,17.32
2023-07-11T02:48:47.419Z,17.05
2023-07-11T02:51:13.975Z,17.07
2023-07-11T02:53:40.394Z,17.26
2023-07-11T02:56:07.436Z,17.03
2023-07-11T02:58:34.189Z,17.21
2023-07-11T03:01:02.541Z,16.81
2023-07-11T03:03:29.282Z,16.86
2023-07-11T03:05:57.052Z,16.99
2023-07-11T03:08:23.773Z,16.74
2023-07-11T03:10:50.210Z,16.84
2023-07-11T03:13:16.810Z,16.81
2023-07-11T03:15:43.263Z,16.73
2023-07-11T03:18:09.941Z,16.71
2023-07-11T03:20:41.276Z,16.78
2023-07-11T03:23:09.487Z,16.81
2023-07-11T03:25:36.614Z,16.77
2023-07-11T03:28:03.265Z,16.78
2023-07-11T03:30:35.497Z,16.66
2023-07-11T03:33:02.709Z,16.59
2023-07-11T03:35:29.219Z,16.52
2023-07-11T03:37:55.819Z,16.59
2023-07-11T03:40:22.274Z,16.47
2023-07-11T03:42:48.965Z,16.49
2023-07-11T03:45:15.487Z,16.57
2023-07-11T03:47:42.171Z,16.55
2023-07-11T03:50:09.355Z,16.65
2023-07-11T03:52:35.904Z,16.55
2023-07-11T03:55:02.298Z,16.59
2023-07-11T03:57:28.728Z,16.68
2023-07-11T03:59:55.155Z,16.58
2023-07-11T04:02:21.554Z,16.66
2023-07-11T04:04:48.045Z,16.91
2023-07-11T04:07:14.528Z,16.97
2023-07-11T04:09:41.785Z,16.95
2023-07-11T04:12:09.105Z,17.08
2023-07-11T04:14:35.661Z,17.00
2023-07-11T04:17:02.103Z,17.19
2023-07-11T04:19:28.716Z,17.18
2023-07-11T04:21:55.098Z,17.25
2023-07-11T04:24:21.530Z,17.40
2023-07-11T04:26:47.995Z,17.51
2023-07-11T04:29:14.526Z,17.63
2023-07-11T04:31:40.983Z,17.73
2023-07-11T04:34:07.421Z,17.91
2023-07-11T04:36:33.847Z,17.85
2023-07-11T04:39:01.227Z,18.40
2023-07-11T04:41:27.727Z,19.00
2023-07-11T04:43:54.156Z,19.60
2023-07-11T04:46:20.724Z,20.15
2023-07-11T04:48:47.608Z,20.53
2023-07-11T04:51:14.448Z,20.62
2023-07-11T04:53:41.069Z,20.58
2023-07-11T04:56:09.814Z,20.64
2023-07-11T04:58:37.487Z,20.85
2023-07-11T05:01:16.365Z,20.84
2023-07-11T05:03:45.566Z,20.92
2023-07-11T05:06:15.452Z,21.06
2023-07-11T05:08:42.724Z,21.19
2023-07-11T05:11:15.005Z,21.25
2023-07-11T05:13:43.134Z,21.59
2023-07-11T05:16:12.826Z,21.51
2023-07-11T05:18:44.894Z,21.39
2023-07-11T05:21:14.446Z,21.72
2023-07-11T05:23:41.412Z,21.97
2023-07-11T05:26:08.821Z,22.09
2023-07-11T05:28:35.729Z,22.13
2023-07-11T05:31:04.665Z,22.36
2023-07-11T05:33:31.545Z,22.58
2023-07-11T05:36:10.576Z,22.63
2023-07-11T05:38:37.074Z,22.88
2023-07-11T05:41:03.584Z,22.73
2023-07-11T05:43:29.991Z,23.03
2023-07-11T05:45:56.514Z,23.63
2023-07-11T05:48:23.012Z,23.42
2023-07-11T05:51:00.496Z,22.94
2023-07-11T05:53:29.405Z,23.19
2023-07-11T05:55:56.867Z,23.49
2023-07-11T05:58:23.427Z,23.41
2023-07-11T06:00:52.830Z,23.65
2023-07-11T06:03:21.400Z,23.50
2023-07-11T06:05:48.011Z,23.97
2023-07-11T06:08:14.499Z,23.96
2023-07-11T06:10:42.619Z,23.82
2023-07-11T06:13:11.799Z,24.16
2023-07-11T06:15:38.637Z,24.34
2023-07-11T06:18:05.364Z,24.10
2023-07-11T06:20:32.097Z,24.16
2023-07-11T06:22:58.666Z,24.76
2023-07-11T06:25:25.087Z,24.83
2023-07-11T06:27:51.496Z,25.07
2023-07-11T06:30:17.909Z,25.39
2023-07-11T06:32:44.499Z,24.98
2023-07-11T06:35:10.974Z,25.09
2023-07-11T06:37:38.302Z,25.19
2023-07-11T06:40:09.537Z,25.04
2023-07-11T06:42:36.155Z,25.20
2023-07-11T06:45:03.348Z,25.28
2023-07-11T06:47:29.860Z,25.45
2023-07-11T06:49:56.323Z,25.22
2023-07-11T06:52:22.749Z,25.65
2023-07-11T06:54:49.162Z,25.75
2023-07-11T06:57:15.670Z,25.95
2023-07-11T06:59:42.214Z,25.73
2023-07-11T07:02:10.736Z,25.87
2023-07-11T07:04:37.301Z,25.85
2023-07-11T07:07:04.037Z,25.95
2023-07-11T07:09:30.531Z,26.05
2023-07-11T07:11:57.038Z,25.85
2023-07-11T07:14:24.099Z,26.20
2023-07-11T07:16:50.615Z,25.74
2023-07-11T07:19:17.194Z,26.55
2023-07-11T07:21:43.625Z,26.25
2023-07-11T07:24:10.263Z,25.78
2023-07-11T07:26:36.870Z,26.21
2023-07-11T07:29:03.334Z,26.26
2023-07-11T07:31:30.278Z,26.12
2023-07-11T07:33:57.113Z,26.25
2023-07-11T07:36:23.552Z,26.68
2023-07-11T07:38:50.035Z,26.73
2023-07-11T07:41:16.715Z,26.84
2023-07-11T07:43:45.878Z,26.69
2023-07-11T07:46:16.008Z,27.09
2023-07-11T07:48:42.842Z,27.65
2023-07-11T07:51:15.740Z,27.66
2023-07-11T07:53:42.311Z,27.64
2023-07-11T07:56:15.186Z,27.53
2023-07-11T07:58:44.125Z,27.93
2023-07-11T08:01:12.230Z,27.78
2023-07-11T08:03:43.254Z,28.22
2023-07-11T08:06:16.667Z,28.35
2023-07-11T08:08:45.411Z,28.12
2023-07-11T08:11:12.800Z,28.31
2023-07-11T08:16:23.677Z,28.28
2023-07-11T08:18:56.131Z,28.16
2023-07-11T08:21:23.451Z,28.49
2023-07-11T08:23:49.835Z,28.24
2023-07-11T08:26:16.314Z,28.54
2023-07-11T08:28:42.978Z,28.48
2023-07-11T08:31:09.763Z,28.85
2023-07-11T08:33:36.474Z,28.77
2023-07-11T08:36:02.891Z,28.80
2023-07-11T08:38:29.347Z,29.04
2023-07-11T08:40:56.546Z,29.02
2023-07-11T08:43:31.164Z,29.21
2023-07-11T08:46:13.746Z,29.37
2023-07-11T08:48:45.684Z,29.53
2023-07-11T08:51:26.708Z,29.64
2023-07-11T08:54:22.155Z,29.53
2023-07-11T08:56:50.680Z,29.83
2023-07-11T08:59:30.727Z,30.15
2023-07-11T09:02:20.360Z,30.53
2023-07-11T09:04:53.076Z,30.27
2023-07-11T09:07:36.556Z,30.44
2023-07-11T09:10:13.263Z,30.55
2023-07-11T09:12:48.232Z,31.04
2023-07-11T09:15:36.685Z,30.44
2023-07-11T09:18:36.527Z,30.40
2023-07-11T09:21:05.731Z,30.84
2023-07-11T09:23:53.879Z,31.16
2023-07-11T09:26:29.365Z,30.96
2023-07-11T09:29:02.241Z,31.18
2023-07-11T09:31:34.367Z,30.96
2023-07-11T09:34:06.493Z,31.22
2023-07-11T09:36:39.600Z,31.11
2023-07-11T09:39:23.722Z,30.94
2023-07-11T09:41:59.653Z,30.75
2023-07-11T09:44:26.119Z,31.12
2023-07-11T09:46:52.527Z,31.46
2023-07-11T09:49:29.720Z,31.49
2023-07-11T09:51:59.450Z,31.63
2023-07-11T09:54:28.672Z,31.72
2023-07-11T09:56:58.526Z,32.34
2023-07-11T09:59:26.456Z,32.06
2023-07-11T10:01:56.831Z,31.96
2023-07-11T10:04:26.150Z,32.50
2023-07-11T10:07:00.896Z,32.06
2023-07-11T10:09:28.641Z,32.05
2023-07-11T10:12:03.480Z,32.63
2023-07-11T10:14:34.738Z,32.22
2023-07-11T10:17:13.156Z,32.58
2023-07-11T10:19:39.540Z,32.66
2023-07-11T10:22:18.162Z,32.18
2023-07-11T10:24:44.738Z,32.49
2023-07-11T10:27:15.066Z,32.51
2023-07-11T10:29:52.852Z,32.07
2023-07-11T10:32:31.824Z,32.13
2023-07-11T10:35:02.719Z,32.55
2023-07-11T10:37:35.721Z,32.33
2023-07-11T10:40:28.096Z,32.17
2023-07-11T10:43:11.084Z,32.38
2023-07-11T10:45:45.712Z,32.71
2023-07-11T10:48:31.655Z,33.02
2023-07-11T10:51:17.254Z,33.30
2023-07-11T10:54:05.044Z,33.63
2023-07-11T10:56:36.789Z,33.67
2023-07-11T10:59:04.155Z,33.62
2023-07-11T11:01:37.698Z,33.66
2023-07-11T11:04:46.596Z,33.54
2023-07-11T11:07:30.046Z,32.97
2023-07-11T11:10:14.973Z,32.88
2023-07-11T11:13:12.417Z,33.82
2023-07-11T11:16:03.886Z,33.42
2023-07-11T11:18:45.524Z,33.11
2023-07-11T11:21:47.858Z,33.70
2023-07-11T11:24:45.285Z,33.78
2023-07-11T11:27:45.478Z,34.02
2023-07-11T11:30:34.768Z,34.12
2023-07-11T11:33:32.926Z,34.17
2023-07-11T11:36:15.396Z,33.53
2023-07-11T11:38:51.895Z,33.60
2023-07-11T11:41:23.023Z,33.55
2023-07-11T11:51:27.896Z,34.47
2023-07-11T11:54:24.583Z,34.77
2023-07-11T11:56:56.108Z,34.93
2023-07-11T11:59:26.135Z,35.02
2023-07-11T12:01:55.385Z,35.07
2023-07-11T12:04:31.328Z,35.32
2023-07-11T12:07:13.558Z,35.12
2023-07-11T12:09:47.432Z,34.96
2023-07-11T12:12:36.961Z,35.63
2023-07-11T12:15:12.593Z,35.39
2023-07-11T12:17:39.661Z,35.23
2023-07-11T12:20:08.870Z,35.17
2023-07-11T12:22:38.103Z,35.10
2023-07-11T12:25:07.711Z,34.99
2023-07-11T12:27:34.335Z,35.42
2023-07-11T12:30:22.654Z,35.28
2023-07-11T12:32:50.672Z,35.58
2023-07-11T12:35:19.004Z,36.08
2023-07-11T12:37:55.383Z,36.03
2023-07-11T12:40:46.293Z,35.75
2023-07-11T12:43:22.205Z,35.97
2023-07-11T12:46:00.746Z,35.64
2023-07-11T12:48:32.251Z,35.55
2023-07-11T12:51:05.011Z,35.49
2023-07-11T12:53:35.499Z,35.63
2023-07-11T12:56:01.994Z,35.49
2023-07-11T12:58:32.726Z,35.50
2023-07-11T13:01:00.285Z,35.66
2023-07-11T13:03:29.876Z,35.36
2023-07-11T13:06:19.728Z,35.41
2023-07-11T13:08:48.186Z,36.03
2023-07-11T13:11:29.290Z,36.04
2023-07-11T13:13:57.056Z,36.06
2023-07-11T13:16:36.990Z,36.02
2023-07-11T13:19:04.246Z,35.93
2023-07-11T13:21:30.807Z,36.07
2023-07-11T13:23:57.675Z,36.36
2023-07-11T13:26:30.722Z,36.24
2023-07-11T13:29:22.593Z,36.43
2023-07-11T13:32:05.016Z,36.10
2023-07-11T13:34:33.408Z,36.31
2023-07-11T13:37:00.216Z,36.47
2023-07-11T13:39:34.362Z,36.28
2023-07-11T13:42:10.361Z,36.45
2023-07-11T13:44:41.234Z,36.10
2023-07-11T13:47:17.079Z,36.03
2023-07-11T13:49:45.935Z,35.97
2023-07-11T13:52:33.080Z,36.41
2023-07-11T13:55:11.946Z,36.32
2023-07-11T13:57:38.807Z,36.00
2023-07-11T14:00:13.085Z,36.12
2023-07-11T14:02:41.108Z,36.39
2023-07-11T14:05:23.961Z,36.15
2023-07-11T14:07:53.180Z,36.12
2023-07-11T14:10:21.246Z,36.37
2023-07-11T14:12:48.008Z,36.00
2023-07-11T14:15:23.641Z,36.54
2023-07-11T14:17:52.108Z,36.01
2023-07-11T14:20:22.883Z,36.06
2023-07-11T14:22:49.999Z,36.13
2023-07-11T14:25:22.741Z,36.15
2023-07-11T14:27:50.408Z,36.28
2023-07-11T14:30:19.184Z,36.33
2023-07-11T14:32:47.340Z,36.40
2023-07-11T14:35:19.192Z,36.38
2023-07-11T14:37:47.196Z,36.85
2023-07-11T14:40:19.097Z,36.67
2023-07-11T14:42:48.092Z,36.33
2023-07-11T14:45:18.643Z,36.46
2023-07-11T14:47:48.314Z,36.69
2023-07-11T14:50:18.216Z,36.59
2023-07-11T14:52:45.555Z,36.75
2023-07-11T15:00:21.139Z,36.62
2023-07-11T15:02:49.593Z,36.27
2023-07-11T15:05:58.346Z,36.12
2023-07-11T15:09:55.815Z,36.25
2023-07-11T15:16:29.040Z,36.47
2023-07-11T15:18:55.517Z,36.01
2023-07-11T15:21:21.956Z,35.79
2023-07-11T15:23:48.358Z,35.75
2023-07-11T15:26:15.222Z,36.07
2023-07-11T15:28:41.610Z,36.19
2023-07-11T15:31:16.446Z,36.02
2023-07-11T15:33:44.989Z,35.99
2023-07-11T15:36:11.750Z,36.05
2023-07-11T15:38:38.588Z,35.49
2023-07-11T15:41:13.799Z,35.51
2023-07-11T15:43:42.068Z,35.53
2023-07-11T15:46:13.857Z,35.55
2023-07-11T15:48:40.469Z,35.33
2023-07-11T15:51:06.930Z,35.42
2023-07-11T15:53:33.402Z,35.45
2023-07-11T15:55:59.900Z,35.36
2023-07-11T15:58:27.458Z,35.28
2023-07-11T16:00:54.054Z,35.45
2023-07-11T16:03:23.247Z,35.23
2023-07-11T16:05:51.452Z,35.26
2023-07-11T16:08:29.699Z,35.07
2023-07-11T16:10:59.218Z,35.11
2023-07-11T16:13:29.872Z,34.89
2023-07-11T16:16:00.162Z,34.92
2023-07-11T16:18:30.558Z,34.77
2023-07-11T16:20:57.116Z,34.82
2023-07-11T16:23:25.862Z,34.59
2023-07-11T16:25:53.352Z,34.39
2023-07-11T16:28:29.160Z,34.40
2023-07-11T16:31:01.038Z,34.21
2023-07-11T16:33:29.257Z,34.12
2023-07-11T16:35:58.241Z,33.98
2023-07-11T16:38:30.569Z,33.78
2023-07-11T16:40:58.811Z,33.93
2023-07-11T16:43:26.985Z,33.83
2023-07-11T16:45:53.921Z,33.73
2023-07-11T16:48:28.284Z,33.57
2023-07-11T16:50:55.874Z,33.43
2023-07-11T16:53:26.462Z,33.34
2023-07-11T16:55:55.268Z,33.33
2023-07-11T16:58:46.446Z,33.43
2023-07-11T17:01:18.751Z,33.16
2023-07-11T17:03:46.799Z,33.35
2023-07-11T17:06:26.901Z,33.04
2023-07-11T17:08:55.068Z,32.79
2023-07-11T17:11:21.590Z,32.86
2023-07-11T17:13:48.013Z,32.87
2023-07-11T17:16:16.295Z,33.03
2023-07-11T17:18:42.939Z,32.69
2023-07-11T17:21:11.372Z,32.80
2023-07-11T17:23:38.227Z,32.63
2023-07-11T17:26:12.950Z,32.59
2023-07-11T17:28:39.458Z,32.61
2023-07-11T17:31:06.183Z,32.31
2023-07-11T17:33:33.786Z,32.16
2023-07-11T17:36:02.664Z,32.24
2023-07-11T17:38:30.047Z,32.11
2023-07-11T17:40:56.511Z,31.67
2023-07-11T17:43:27.326Z,31.05
2023-07-11T17:48:27.131Z,30.88
2023-07-11T17:50:57.316Z,30.71
2023-07-11T17:53:24.384Z,30.86
2023-07-11T17:55:51.081Z,30.85
2023-07-11T17:58:29.544Z,30.09
2023-07-11T18:01:00.208Z,29.77
2023-07-11T18:03:28.422Z,29.63
2023-07-11T18:05:56.863Z,29.92
2023-07-11T18:08:25.474Z,29.83
2023-07-11T18:10:52.331Z,29.38
2023-07-11T18:13:20.096Z,29.19
2023-07-11T18:15:48.528Z,29.35
2023-07-11T18:18:22.767Z,29.60
2023-07-11T18:20:49.333Z,29.47
2023-07-11T18:23:15.800Z,29.44
2023-07-11T18:25:42.691Z,29.64
2023-07-11T18:28:17.485Z,29.54
2023-07-11T18:30:44.767Z,29.32
2023-07-11T18:33:11.412Z,29.46
2023-07-11T18:35:39.540Z,29.53
2023-07-11T18:38:17.080Z,29.36
2023-07-11T18:40:45.156Z,29.57
2023-07-11T18:43:11.920Z,29.60
2023-07-11T18:45:40.020Z,29.87
2023-07-11T18:48:06.985Z,29.70
2023-07-11T18:50:35.822Z,29.72
2023-07-11T18:53:02.822Z,29.58
2023-07-11T18:55:29.255Z,29.69
2023-07-11T18:57:56.268Z,29.56
2023-07-11T19:00:50.175Z,29.20
2023-07-11T19:03:18.599Z,29.20
2023-07-11T19:05:45.992Z,29.11
2023-07-11T19:08:21.294Z,29.18
2023-07-11T19:10:49.141Z,29.03
2023-07-11T19:13:15.802Z,28.97
2023-07-11T19:15:44.736Z,29.08
2023-07-11T19:18:23.235Z,29.33
2023-07-11T19:20:50.613Z,29.36
2023-07-11T19:23:28.155Z,29.26
2023-07-11T19:25:57.072Z,29.30
2023-07-11T19:28:27.988Z,29.02
2023-07-11T19:30:57.950Z,28.70
2023-07-11T19:33:26.324Z,28.41
2023-07-11T19:35:57.891Z,28.63
2023-07-11T19:38:27.484Z,28.98
2023-07-11T19:40:56.270Z,28.30
2023-07-11T19:43:23.591Z,27.99
2023-07-11T19:45:52.681Z,27.98
2023-07-11T19:48:21.465Z,28.13
2023-07-11T19:50:56.040Z,28.34
2023-07-11T19:53:24.789Z,28.07
2023-07-11T19:55:54.586Z,27.71
2023-07-11T19:58:28.534Z,27.70
2023-07-11T20:00:59.228Z,27.80
2023-07-11T20:03:28.204Z,27.59
2023-07-11T20:05:55.159Z,27.38
2023-07-11T20:08:39.826Z,27.23
2023-07-11T20:11:06.567Z,27.50
2023-07-11T20:13:33.311Z,27.36
2023-07-11T20:16:03.146Z,27.49
2023-07-11T20:18:33.144Z,27.57
2023-07-11T20:21:02.950Z,27.24
2023-07-11T20:23:30.127Z,27.26
2023-07-11T20:25:59.977Z,27.50
2023-07-11T20:28:26.470Z,27.08
2023-07-11T20:30:55.328Z,27.02
2023-07-11T20:33:22.604Z,26.87
2023-07-11T20:35:51.650Z,26.53
2023-07-11T20:38:20.226Z,26.42
2023-07-11T20:40:48.490Z,26.22
2023-07-11T20:43:15.513Z,26.03
2023-07-11T20:45:44.827Z,26.05
2023-07-11T20:48:24.222Z,25.90
2023-07-11T20:50:52.050Z,26.40
2023-07-11T20:53:21.697Z,26.21
2023-07-11T20:55:52.278Z,26.10
2023-07-11T20:58:18.930Z,25.88
2023-07-11T21:00:46.197Z,25.68
2023-07-11T21:03:14.297Z,25.14
2023-07-11T21:05:42.030Z,24.71
2023-07-11T21:08:29.412Z,24.12
2023-07-11T21:10:57.554Z,24.36
2023-07-11T21:13:24.348Z,24.54
2023-07-11T21:15:51.970Z,24.31
2023-07-11T21:18:21.729Z,24.87
2023-07-11T21:20:50.832Z,25.18
2023-07-11T21:23:17.342Z,24.86
2023-07-11T21:25:45.141Z,25.00
2023-07-11T21:28:24.848Z,24.67
2023-07-11T21:30:51.724Z,24.57
2023-07-11T21:33:19.309Z,24.26
2023-07-11T21:35:47.010Z,24.36
2023-07-11T21:38:24.011Z,24.38
2023-07-11T21:40:51.843Z,24.17
2023-07-11T21:43:18.315Z,23.94
2023-07-11T21:45:45.186Z,23.98
2023-07-11T21:48:23.766Z,24.41
2023-07-11T21:51:00.252Z,24.30
2023-07-11T21:53:28.884Z,24.18
2023-07-11T21:56:19.567Z,24.20
2023-07-11T21:58:46.032Z,24.06
2023-07-11T22:01:12.817Z,24.03
2023-07-11T22:03:39.759Z,23.82
2023-07-11T22:06:15.820Z,23.87
2023-07-11T22:08:42.448Z,24.27
2023-07-11T22:11:10.799Z,24.46
2023-07-11T22:13:37.303Z,24.46
2023-07-11T22:16:12.255Z,24.97
2023-07-11T22:18:38.843Z,24.82
2023-07-11T22:21:05.564Z,24.84
2023-07-11T22:23:32.039Z,24.47
2023-07-11T22:25:58.439Z,24.33
2023-07-11T22:28:25.246Z,24.29
2023-07-11T22:30:52.847Z,24.09
2023-07-11T22:33:19.791Z,24.09
2023-07-11T22:35:46.373Z,23.77
2023-07-11T22:38:14.601Z,23.20
2023-07-11T22:40:49.423Z,23.45
2023-07-11T22:43:19.659Z,23.48
2023-07-11T22:45:52.628Z,23.68
2023-07-11T22:48:22.378Z,23.61
2023-07-11T22:50:54.071Z,23.32
2023-07-11T22:53:22.911Z,23.13
2023-07-11T22:55:52.619Z,23.20
2023-07-11T22:58:26.596Z,23.24
2023-07-11T23:00:54.878Z,23.13
2023-07-11T23:03:22.110Z,22.98
2023-07-11T23:05:50.724Z,22.97
2023-07-11T23:08:21.150Z,23.02
2023-07-11T23:10:49.138Z,23.12
2023-07-11T23:13:17.708Z,23.25
2023-07-11T23:15:49.411Z,23.42
2023-07-11T23:18:25.119Z,23.36
2023-07-11T23:20:54.900Z,23.35
2023-07-11T23:23:27.939Z,23.41
2023-07-11T23:25:56.266Z,23.42
2023-07-11T23:28:31.876Z,23.35
2023-07-11T23:31:00.466Z,23.37
2023-07-11T23:33:27.243Z,23.49
2023-07-11T23:35:56.410Z,23.54
2023-07-11T23:38:24.090Z,23.49
2023-07-11T23:40:52.860Z,23.49
2023-07-11T23:43:37.193Z,23.52
2023-07-11T23:46:30.391Z,23.49
2023-07-11T23:48:57.466Z,23.67
2023-07-11T23:51:26.801Z,23.51
2023-07-11T23:53:53.277Z,23.50
2023-07-11T23:56:25.376Z,23.41
2023-07-11T23:58:52.479Z,23.38
